sensor_id;sensor_type;location;lat;lon;timestamp;P1;durP1;ratioP1;P2;durP2;ratioP2
70388;SDS011;58659;49.050;8.530;2023-05-20T00:00:04;1.77;;;1.63;;
70388;SDS011;58659;49.050;8.530;2023-05-20T00:02:30;1.87;;;1.37;;
70388;SDS011;58659;49.050;8.530;2023-05-20T00:04:56;2.23;;;1.40;;
70388;SDS011;58659;49.050;8.530;2023-05-20T00:07:21;2.13;;;1.57;;
70388;SDS011;58659;49.050;8.530;2023-05-20T00:09:46;2.50;;;1.87;;
70388;SDS011;58659;49.050;8.530;2023-05-20T00:12:12;3.37;;;1.60;;
70388;SDS011;58659;49.050;8.530;2023-05-20T00:14:37;2.80;;;2.00;;
70388;SDS011;58659;49.050;8.530;2023-05-20T00:17:02;4.20;;;2.07;;
70388;SDS011;58659;49.050;8.530;2023-05-20T00:19:30;1.93;;;1.57;;
70388;SDS011;58659;49.050;8.530;2023-05-20T00:21:56;2.47;;;1.43;;
70388;SDS011;58659;49.050;8.530;2023-05-20T00:24:22;2.53;;;1.57;;
70388;SDS011;58659;49.050;8.530;2023-05-20T00:26:48;6.43;;;1.57;;
70388;SDS011;58659;49.050;8.530;2023-05-20T00:29:13;3.80;;;1.20;;
70388;SDS011;58659;49.050;8.530;2023-05-20T00:31:38;2.47;;;1.83;;
70388;SDS011;58659;49.050;8.530;2023-05-20T00:34:04;3.17;;;1.70;;
70388;SDS011;58659;49.050;8.530;2023-05-20T00:36:29;1.67;;;1.30;;
70388;SDS011;58659;49.050;8.530;2023-05-20T00:38:55;1.57;;;1.30;;
70388;SDS011;58659;49.050;8.530;2023-05-20T00:41:20;1.67;;;1.10;;
70388;SDS011;58659;49.050;8.530;2023-05-20T00:43:45;1.43;;;1.23;;
70388;SDS011;58659;49.050;8.530;2023-05-20T00:46:11;3.93;;;1.63;;
70388;SDS011;58659;49.050;8.530;2023-05-20T00:48:41;1.53;;;1.43;;
70388;SDS011;58659;49.050;8.530;2023-05-20T00:51:07;1.43;;;1.27;;
70388;SDS011;58659;49.050;8.530;2023-05-20T00:53:34;3.47;;;1.70;;
70388;SDS011;58659;49.050;8.530;2023-05-20T00:56:00;1.77;;;1.40;;
70388;SDS011;58659;49.050;8.530;2023-05-20T00:58:26;1.90;;;1.50;;
70388;SDS011;58659;49.050;8.530;2023-05-20T01:00:52;2.93;;;1.60;;
70388;SDS011;58659;49.050;8.530;2023-05-20T01:03:17;1.30;;;1.20;;
70388;SDS011;58659;49.050;8.530;2023-05-20T01:05:43;3.90;;;2.20;;
70388;SDS011;58659;49.050;8.530;2023-05-20T01:08:08;1.67;;;1.50;;
70388;SDS011;58659;49.050;8.530;2023-05-20T01:10:34;1.50;;;1.40;;
70388;SDS011;58659;49.050;8.530;2023-05-20T01:13:02;1.47;;;1.30;;
70388;SDS011;58659;49.050;8.530;2023-05-20T01:15:35;2.60;;;1.53;;
70388;SDS011;58659;49.050;8.530;2023-05-20T01:18:03;4.30;;;1.23;;
70388;SDS011;58659;49.050;8.530;2023-05-20T01:20:34;2.23;;;1.50;;
70388;SDS011;58659;49.050;8.530;2023-05-20T01:23:01;1.87;;;1.23;;
70388;SDS011;58659;49.050;8.530;2023-05-20T01:25:29;3.73;;;1.70;;
70388;SDS011;58659;49.050;8.530;2023-05-20T01:27:54;2.57;;;1.40;;
70388;SDS011;58659;49.050;8.530;2023-05-20T01:30:21;1.97;;;1.40;;
70388;SDS011;58659;49.050;8.530;2023-05-20T01:33:04;1.20;;;1.10;;
70388;SDS011;58659;49.050;8.530;2023-05-20T01:35:35;2.40;;;1.20;;
70388;SDS011;58659;49.050;8.530;2023-05-20T01:38:00;1.97;;;1.47;;
70388;SDS011;58659;49.050;8.530;2023-05-20T01:40:31;1.10;;;1.00;;
70388;SDS011;58659;49.050;8.530;2023-05-20T01:43:01;2.27;;;1.43;;
70388;SDS011;58659;49.050;8.530;2023-05-20T01:45:27;1.80;;;1.20;;
70388;SDS011;58659;49.050;8.530;2023-05-20T01:47:52;1.70;;;1.50;;
70388;SDS011;58659;49.050;8.530;2023-05-20T01:50:18;1.07;;;1.00;;
70388;SDS011;58659;49.050;8.530;2023-05-20T01:52:43;3.80;;;1.10;;
70388;SDS011;58659;49.050;8.530;2023-05-20T01:55:09;4.33;;;2.23;;
70388;SDS011;58659;49.050;8.530;2023-05-20T01:57:34;1.47;;;1.37;;
70388;SDS011;58659;49.050;8.530;2023-05-20T02:00:00;1.53;;;1.20;;
70388;SDS011;58659;49.050;8.530;2023-05-20T02:02:25;2.83;;;1.27;;
70388;SDS011;58659;49.050;8.530;2023-05-20T02:04:52;2.87;;;1.73;;
70388;SDS011;58659;49.050;8.530;2023-05-20T02:07:18;1.30;;;1.20;;
70388;SDS011;58659;49.050;8.530;2023-05-20T02:09:44;1.73;;;1.27;;
70388;SDS011;58659;49.050;8.530;2023-05-20T02:12:09;1.87;;;1.10;;
70388;SDS011;58659;49.050;8.530;2023-05-20T02:14:40;2.20;;;1.30;;
70388;SDS011;58659;49.050;8.530;2023-05-20T02:17:05;1.73;;;1.07;;
70388;SDS011;58659;49.050;8.530;2023-05-20T02:19:31;1.33;;;1.17;;
70388;SDS011;58659;49.050;8.530;2023-05-20T02:21:56;1.10;;;1.07;;
70388;SDS011;58659;49.050;8.530;2023-05-20T02:24:21;2.07;;;1.20;;
70388;SDS011;58659;49.050;8.530;2023-05-20T02:26:47;3.73;;;1.40;;
70388;SDS011;58659;49.050;8.530;2023-05-20T02:29:15;1.60;;;1.20;;
70388;SDS011;58659;49.050;8.530;2023-05-20T02:31:40;3.07;;;1.40;;
70388;SDS011;58659;49.050;8.530;2023-05-20T02:34:05;1.27;;;1.17;;
70388;SDS011;58659;49.050;8.530;2023-05-20T02:36:31;1.63;;;1.03;;
70388;SDS011;58659;49.050;8.530;2023-05-20T02:38:56;1.93;;;1.30;;
70388;SDS011;58659;49.050;8.530;2023-05-20T02:41:21;2.67;;;1.20;;
70388;SDS011;58659;49.050;8.530;2023-05-20T02:43:47;1.57;;;1.33;;
70388;SDS011;58659;49.050;8.530;2023-05-20T02:46:12;2.33;;;1.60;;
70388;SDS011;58659;49.050;8.530;2023-05-20T02:48:37;1.37;;;1.23;;
70388;SDS011;58659;49.050;8.530;2023-05-20T02:51:03;2.20;;;1.40;;
70388;SDS011;58659;49.050;8.530;2023-05-20T02:53:29;1.77;;;1.20;;
70388;SDS011;58659;49.050;8.530;2023-05-20T02:55:56;1.43;;;1.07;;
70388;SDS011;58659;49.050;8.530;2023-05-20T02:58:21;1.77;;;1.10;;
70388;SDS011;58659;49.050;8.530;2023-05-20T03:00:50;2.50;;;1.40;;
70388;SDS011;58659;49.050;8.530;2023-05-20T03:03:18;1.20;;;1.10;;
70388;SDS011;58659;49.050;8.530;2023-05-20T03:05:47;2.57;;;1.53;;
70388;SDS011;58659;49.050;8.530;2023-05-20T03:08:12;1.27;;;1.17;;
70388;SDS011;58659;49.050;8.530;2023-05-20T03:10:38;1.30;;;1.20;;
70388;SDS011;58659;49.050;8.530;2023-05-20T03:13:04;1.97;;;1.50;;
70388;SDS011;58659;49.050;8.530;2023-05-20T03:15:33;1.40;;;1.20;;
70388;SDS011;58659;49.050;8.530;2023-05-20T03:17:59;1.30;;;1.20;;
70388;SDS011;58659;49.050;8.530;2023-05-20T03:20:25;1.37;;;1.07;;
70388;SDS011;58659;49.050;8.530;2023-05-20T03:22:50;1.63;;;1.37;;
70388;SDS011;58659;49.050;8.530;2023-05-20T03:25:16;1.47;;;1.20;;
70388;SDS011;58659;49.050;8.530;2023-05-20T03:27:41;1.73;;;1.50;;
70388;SDS011;58659;49.050;8.530;2023-05-20T03:30:08;2.57;;;1.50;;
70388;SDS011;58659;49.050;8.530;2023-05-20T03:32:34;1.60;;;1.33;;
70388;SDS011;58659;49.050;8.530;2023-05-20T03:35:05;1.47;;;1.33;;
70388;SDS011;58659;49.050;8.530;2023-05-20T03:37:31;2.13;;;1.40;;
70388;SDS011;58659;49.050;8.530;2023-05-20T03:39:56;1.30;;;1.20;;
70388;SDS011;58659;49.050;8.530;2023-05-20T03:42:25;2.43;;;1.50;;
70388;SDS011;58659;49.050;8.530;2023-05-20T03:44:50;2.80;;;1.87;;
70388;SDS011;58659;49.050;8.530;2023-05-20T03:47:15;5.03;;;1.90;;
70388;SDS011;58659;49.050;8.530;2023-05-20T03:49:41;4.60;;;2.33;;
70388;SDS011;58659;49.050;8.530;2023-05-20T03:52:06;2.40;;;1.37;;
70388;SDS011;58659;49.050;8.530;2023-05-20T03:54:31;2.90;;;1.70;;
70388;SDS011;58659;49.050;8.530;2023-05-20T03:56:57;1.40;;;1.20;;
70388;SDS011;58659;49.050;8.530;2023-05-20T03:59:24;2.70;;;1.60;;
70388;SDS011;58659;49.050;8.530;2023-05-20T04:01:51;3.33;;;1.70;;
70388;SDS011;58659;49.050;8.530;2023-05-20T04:04:16;1.70;;;1.30;;
70388;SDS011;58659;49.050;8.530;2023-05-20T04:06:44;2.87;;;1.60;;
70388;SDS011;58659;49.050;8.530;2023-05-20T04:09:10;2.77;;;1.50;;
70388;SDS011;58659;49.050;8.530;2023-05-20T04:11:35;2.43;;;1.53;;
70388;SDS011;58659;49.050;8.530;2023-05-20T04:14:00;1.93;;;1.40;;
70388;SDS011;58659;49.050;8.530;2023-05-20T04:16:26;2.33;;;1.40;;
70388;SDS011;58659;49.050;8.530;2023-05-20T04:18:53;1.87;;;1.40;;
70388;SDS011;58659;49.050;8.530;2023-05-20T04:21:18;1.80;;;1.20;;
70388;SDS011;58659;49.050;8.530;2023-05-20T04:23:44;3.77;;;1.60;;
70388;SDS011;58659;49.050;8.530;2023-05-20T04:26:09;1.20;;;1.10;;
70388;SDS011;58659;49.050;8.530;2023-05-20T04:28:34;1.27;;;1.20;;
70388;SDS011;58659;49.050;8.530;2023-05-20T04:31:02;3.73;;;1.07;;
70388;SDS011;58659;49.050;8.530;2023-05-20T04:33:28;1.27;;;1.17;;
70388;SDS011;58659;49.050;8.530;2023-05-20T04:35:53;1.40;;;1.30;;
70388;SDS011;58659;49.050;8.530;2023-05-20T04:38:25;1.30;;;1.20;;
70388;SDS011;58659;49.050;8.530;2023-05-20T04:40:59;1.27;;;1.10;;
70388;SDS011;58659;49.050;8.530;2023-05-20T04:43:25;3.33;;;1.00;;
70388;SDS011;58659;49.050;8.530;2023-05-20T04:45:54;2.30;;;1.30;;
70388;SDS011;58659;49.050;8.530;2023-05-20T04:48:19;3.00;;;1.47;;
70388;SDS011;58659;49.050;8.530;2023-05-20T04:50:46;2.83;;;1.60;;
70388;SDS011;58659;49.050;8.530;2023-05-20T04:53:16;1.30;;;1.20;;
70388;SDS011;58659;49.050;8.530;2023-05-20T04:55:42;2.07;;;1.43;;
70388;SDS011;58659;49.050;8.530;2023-05-20T04:58:08;1.73;;;1.40;;
70388;SDS011;58659;49.050;8.530;2023-05-20T05:00:39;2.33;;;1.40;;
70388;SDS011;58659;49.050;8.530;2023-05-20T05:03:08;1.47;;;1.20;;
70388;SDS011;58659;49.050;8.530;2023-05-20T05:05:34;1.33;;;1.20;;
70388;SDS011;58659;49.050;8.530;2023-05-20T05:08:06;1.77;;;1.30;;
70388;SDS011;58659;49.050;8.530;2023-05-20T05:10:35;1.73;;;1.63;;
70388;SDS011;58659;49.050;8.530;2023-05-20T05:13:00;4.63;;;1.57;;
70388;SDS011;58659;49.050;8.530;2023-05-20T05:15:26;2.30;;;1.50;;
70388;SDS011;58659;49.050;8.530;2023-05-20T05:17:52;1.60;;;1.30;;
70388;SDS011;58659;49.050;8.530;2023-05-20T05:20:17;1.23;;;1.13;;
70388;SDS011;58659;49.050;8.530;2023-05-20T05:22:43;2.30;;;1.30;;
70388;SDS011;58659;49.050;8.530;2023-05-20T05:25:08;0.90;;;0.90;;
70388;SDS011;58659;49.050;8.530;2023-05-20T05:27:34;1.60;;;1.30;;
70388;SDS011;58659;49.050;8.530;2023-05-20T05:30:00;1.40;;;1.20;;
70388;SDS011;58659;49.050;8.530;2023-05-20T05:32:26;1.40;;;1.17;;
70388;SDS011;58659;49.050;8.530;2023-05-20T05:34:51;1.90;;;1.43;;
70388;SDS011;58659;49.050;8.530;2023-05-20T05:37:16;1.50;;;1.27;;
70388;SDS011;58659;49.050;8.530;2023-05-20T05:39:42;1.57;;;1.10;;
70388;SDS011;58659;49.050;8.530;2023-05-20T05:42:07;2.63;;;1.23;;
70388;SDS011;58659;49.050;8.530;2023-05-20T05:44:32;2.03;;;1.40;;
70388;SDS011;58659;49.050;8.530;2023-05-20T05:46:58;2.27;;;1.23;;
70388;SDS011;58659;49.050;8.530;2023-05-20T05:49:23;4.53;;;1.47;;
70388;SDS011;58659;49.050;8.530;2023-05-20T05:51:49;1.47;;;1.33;;
70388;SDS011;58659;49.050;8.530;2023-05-20T05:54:15;1.33;;;1.20;;
70388;SDS011;58659;49.050;8.530;2023-05-20T05:56:40;1.77;;;1.40;;
70388;SDS011;58659;49.050;8.530;2023-05-20T05:59:06;1.83;;;1.50;;
70388;SDS011;58659;49.050;8.530;2023-05-20T06:01:31;1.00;;;0.90;;
70388;SDS011;58659;49.050;8.530;2023-05-20T06:03:56;2.43;;;1.40;;
70388;SDS011;58659;49.050;8.530;2023-05-20T06:06:22;3.70;;;1.60;;
70388;SDS011;58659;49.050;8.530;2023-05-20T06:08:47;1.20;;;1.10;;
70388;SDS011;58659;49.050;8.530;2023-05-20T06:11:12;1.17;;;1.03;;
70388;SDS011;58659;49.050;8.530;2023-05-20T06:13:38;0.87;;;0.87;;
70388;SDS011;58659;49.050;8.530;2023-05-20T06:16:03;2.20;;;1.23;;
70388;SDS011;58659;49.050;8.530;2023-05-20T06:18:29;2.40;;;1.70;;
70388;SDS011;58659;49.050;8.530;2023-05-20T06:20:55;2.37;;;1.47;;
70388;SDS011;58659;49.050;8.530;2023-05-20T06:23:21;3.03;;;1.60;;
70388;SDS011;58659;49.050;8.530;2023-05-20T06:25:46;3.60;;;1.47;;
70388;SDS011;58659;49.050;8.530;2023-05-20T06:28:13;7.80;;;2.27;;
70388;SDS011;58659;49.050;8.530;2023-05-20T06:30:39;2.30;;;1.87;;
70388;SDS011;58659;49.050;8.530;2023-05-20T06:33:05;4.13;;;1.30;;
70388;SDS011;58659;49.050;8.530;2023-05-20T06:35:30;3.83;;;1.73;;
70388;SDS011;58659;49.050;8.530;2023-05-20T06:37:58;2.13;;;1.52;;
70388;SDS011;58659;49.050;8.530;2023-05-20T06:40:25;2.67;;;1.60;;
70388;SDS011;58659;49.050;8.530;2023-05-20T06:42:51;3.00;;;1.47;;
70388;SDS011;58659;49.050;8.530;2023-05-20T06:45:36;4.20;;;1.80;;
70388;SDS011;58659;49.050;8.530;2023-05-20T06:48:02;2.93;;;1.77;;
70388;SDS011;58659;49.050;8.530;2023-05-20T06:50:27;2.23;;;1.37;;
70388;SDS011;58659;49.050;8.530;2023-05-20T06:52:53;4.17;;;1.40;;
70388;SDS011;58659;49.050;8.530;2023-05-20T06:55:18;2.40;;;1.70;;
70388;SDS011;58659;49.050;8.530;2023-05-20T06:57:44;3.07;;;1.70;;
70388;SDS011;58659;49.050;8.530;2023-05-20T07:00:09;3.50;;;1.80;;
70388;SDS011;58659;49.050;8.530;2023-05-20T07:02:44;2.63;;;1.70;;
70388;SDS011;58659;49.050;8.530;2023-05-20T07:05:13;3.70;;;1.83;;
70388;SDS011;58659;49.050;8.530;2023-05-20T07:07:38;3.70;;;1.80;;
70388;SDS011;58659;49.050;8.530;2023-05-20T07:10:04;3.30;;;2.10;;
70388;SDS011;58659;49.050;8.530;2023-05-20T07:12:30;2.00;;;1.30;;
70388;SDS011;58659;49.050;8.530;2023-05-20T07:14:57;3.38;;;2.00;;
70388;SDS011;58659;49.050;8.530;2023-05-20T07:17:23;1.53;;;1.43;;
70388;SDS011;58659;49.050;8.530;2023-05-20T07:19:48;3.00;;;1.90;;
70388;SDS011;58659;49.050;8.530;2023-05-20T07:22:14;3.43;;;2.00;;
70388;SDS011;58659;49.050;8.530;2023-05-20T07:24:39;2.50;;;1.70;;
70388;SDS011;58659;49.050;8.530;2023-05-20T07:27:04;4.27;;;1.87;;
70388;SDS011;58659;49.050;8.530;2023-05-20T07:29:30;4.37;;;2.20;;
70388;SDS011;58659;49.050;8.530;2023-05-20T07:31:55;3.77;;;1.73;;
70388;SDS011;58659;49.050;8.530;2023-05-20T07:34:21;3.00;;;2.10;;
70388;SDS011;58659;49.050;8.530;2023-05-20T07:36:46;2.47;;;1.83;;
70388;SDS011;58659;49.050;8.530;2023-05-20T07:39:12;3.37;;;1.83;;
70388;SDS011;58659;49.050;8.530;2023-05-20T07:41:39;3.25;;;2.08;;
70388;SDS011;58659;49.050;8.530;2023-05-20T07:44:05;2.10;;;1.63;;
70388;SDS011;58659;49.050;8.530;2023-05-20T07:46:33;1.70;;;1.60;;
70388;SDS011;58659;49.050;8.530;2023-05-20T07:49:00;3.27;;;1.80;;
70388;SDS011;58659;49.050;8.530;2023-05-20T07:51:25;2.47;;;2.00;;
70388;SDS011;58659;49.050;8.530;2023-05-20T07:53:53;3.57;;;1.87;;
70388;SDS011;58659;49.050;8.530;2023-05-20T07:56:18;2.50;;;1.73;;
70388;SDS011;58659;49.050;8.530;2023-05-20T07:58:50;3.30;;;1.57;;
70388;SDS011;58659;49.050;8.530;2023-05-20T08:01:16;4.97;;;2.00;;
70388;SDS011;58659;49.050;8.530;2023-05-20T08:03:42;2.13;;;1.93;;
70388;SDS011;58659;49.050;8.530;2023-05-20T08:06:07;3.77;;;2.10;;
70388;SDS011;58659;49.050;8.530;2023-05-20T08:08:32;4.13;;;2.33;;
70388;SDS011;58659;49.050;8.530;2023-05-20T08:10:58;2.57;;;1.80;;
70388;SDS011;58659;49.050;8.530;2023-05-20T08:13:28;4.87;;;1.60;;
70388;SDS011;58659;49.050;8.530;2023-05-20T08:15:53;3.57;;;2.10;;
70388;SDS011;58659;49.050;8.530;2023-05-20T08:18:40;2.00;;;1.80;;
70388;SDS011;58659;49.050;8.530;2023-05-20T08:21:08;1.93;;;1.40;;
70388;SDS011;58659;49.050;8.530;2023-05-20T08:23:34;2.80;;;1.80;;
70388;SDS011;58659;49.050;8.530;2023-05-20T08:26:00;4.13;;;2.10;;
70388;SDS011;58659;49.050;8.530;2023-05-20T08:28:27;6.87;;;2.37;;
70388;SDS011;58659;49.050;8.530;2023-05-20T08:30:53;4.47;;;2.10;;
70388;SDS011;58659;49.050;8.530;2023-05-20T08:33:18;3.63;;;1.63;;
70388;SDS011;58659;49.050;8.530;2023-05-20T08:35:45;2.30;;;1.80;;
70388;SDS011;58659;49.050;8.530;2023-05-20T08:38:11;2.50;;;1.70;;
70388;SDS011;58659;49.050;8.530;2023-05-20T08:40:36;2.27;;;2.03;;
70388;SDS011;58659;49.050;8.530;2023-05-20T08:43:02;3.43;;;1.77;;
70388;SDS011;58659;49.050;8.530;2023-05-20T08:45:29;2.97;;;2.00;;
70388;SDS011;58659;49.050;8.530;2023-05-20T08:47:56;2.67;;;1.97;;
70388;SDS011;58659;49.050;8.530;2023-05-20T08:50:22;3.13;;;2.17;;
70388;SDS011;58659;49.050;8.530;2023-05-20T08:52:47;2.33;;;1.77;;
70388;SDS011;58659;49.050;8.530;2023-05-20T08:55:14;2.83;;;2.08;;
70388;SDS011;58659;49.050;8.530;2023-05-20T08:57:41;3.60;;;2.10;;
70388;SDS011;58659;49.050;8.530;2023-05-20T09:00:10;2.05;;;1.83;;
70388;SDS011;58659;49.050;8.530;2023-05-20T09:02:40;1.92;;;1.73;;
70388;SDS011;58659;49.050;8.530;2023-05-20T09:05:05;2.60;;;1.88;;
70388;SDS011;58659;49.050;8.530;2023-05-20T09:07:31;2.35;;;1.65;;
70388;SDS011;58659;49.050;8.530;2023-05-20T09:09:56;2.47;;;1.95;;
70388;SDS011;58659;49.050;8.530;2023-05-20T09:12:22;2.92;;;2.10;;
70388;SDS011;58659;49.050;8.530;2023-05-20T09:14:48;3.30;;;1.88;;
70388;SDS011;58659;49.050;8.530;2023-05-20T09:17:14;4.07;;;2.20;;
70388;SDS011;58659;49.050;8.530;2023-05-20T09:19:39;2.80;;;2.17;;
70388;SDS011;58659;49.050;8.530;2023-05-20T09:22:05;3.28;;;2.10;;
70388;SDS011;58659;49.050;8.530;2023-05-20T09:24:31;2.17;;;1.92;;
70388;SDS011;58659;49.050;8.530;2023-05-20T09:26:56;2.72;;;1.80;;
70388;SDS011;58659;49.050;8.530;2023-05-20T09:29:22;1.90;;;1.80;;
70388;SDS011;58659;49.050;8.530;2023-05-20T09:31:49;2.70;;;1.85;;
70388;SDS011;58659;49.050;8.530;2023-05-20T09:34:15;5.82;;;2.03;;
70388;SDS011;58659;49.050;8.530;2023-05-20T09:36:42;3.05;;;1.90;;
70388;SDS011;58659;49.050;8.530;2023-05-20T09:39:11;2.20;;;1.90;;
70388;SDS011;58659;49.050;8.530;2023-05-20T09:41:52;3.27;;;2.00;;
70388;SDS011;58659;49.050;8.530;2023-05-20T09:44:21;3.08;;;2.15;;
70388;SDS011;58659;49.050;8.530;2023-05-20T09:46:47;2.38;;;1.70;;
70388;SDS011;58659;49.050;8.530;2023-05-20T09:49:14;2.50;;;2.05;;
70388;SDS011;58659;49.050;8.530;2023-05-20T09:51:41;2.47;;;1.80;;
70388;SDS011;58659;49.050;8.530;2023-05-20T09:54:08;2.60;;;2.08;;
70388;SDS011;58659;49.050;8.530;2023-05-20T09:56:34;4.63;;;2.72;;
70388;SDS011;58659;49.050;8.530;2023-05-20T09:59:00;3.58;;;2.13;;
70388;SDS011;58659;49.050;8.530;2023-05-20T10:01:26;3.25;;;2.15;;
70388;SDS011;58659;49.050;8.530;2023-05-20T10:03:52;2.95;;;2.13;;
70388;SDS011;58659;49.050;8.530;2023-05-20T10:06:25;3.43;;;2.27;;
70388;SDS011;58659;49.050;8.530;2023-05-20T10:09:18;3.05;;;2.00;;
70388;SDS011;58659;49.050;8.530;2023-05-20T10:20:30;2.38;;;1.77;;
70388;SDS011;58659;49.050;8.530;2023-05-20T10:22:56;2.28;;;1.67;;
70388;SDS011;58659;49.050;8.530;2023-05-20T10:25:23;2.95;;;2.00;;
70388;SDS011;58659;49.050;8.530;2023-05-20T10:27:50;2.72;;;1.95;;
70388;SDS011;58659;49.050;8.530;2023-05-20T10:30:16;2.92;;;2.10;;
70388;SDS011;58659;49.050;8.530;2023-05-20T10:32:52;3.25;;;2.08;;
70388;SDS011;58659;49.050;8.530;2023-05-20T10:35:24;2.63;;;2.03;;
70388;SDS011;58659;49.050;8.530;2023-05-20T10:37:51;3.65;;;2.22;;
70388;SDS011;58659;49.050;8.530;2023-05-20T10:40:19;2.80;;;1.98;;
70388;SDS011;58659;49.050;8.530;2023-05-20T10:42:46;2.72;;;1.90;;
70388;SDS011;58659;49.050;8.530;2023-05-20T10:45:23;2.70;;;2.08;;
70388;SDS011;58659;49.050;8.530;2023-05-20T10:47:53;2.85;;;2.00;;
70388;SDS011;58659;49.050;8.530;2023-05-20T10:50:33;3.25;;;2.20;;
70388;SDS011;58659;49.050;8.530;2023-05-20T10:53:11;4.80;;;2.45;;
70388;SDS011;58659;49.050;8.530;2023-05-20T10:55:38;3.30;;;2.10;;
70388;SDS011;58659;49.050;8.530;2023-05-20T10:58:04;3.65;;;2.17;;
70388;SDS011;58659;49.050;8.530;2023-05-20T11:00:34;2.45;;;1.83;;
70388;SDS011;58659;49.050;8.530;2023-05-20T11:03:00;2.78;;;2.10;;
70388;SDS011;58659;49.050;8.530;2023-05-20T11:05:27;2.95;;;2.40;;
70388;SDS011;58659;49.050;8.530;2023-05-20T11:08:00;2.33;;;2.00;;
70388;SDS011;58659;49.050;8.530;2023-05-20T11:10:26;2.22;;;1.70;;
70388;SDS011;58659;49.050;8.530;2023-05-20T11:12:51;3.85;;;2.13;;
70388;SDS011;58659;49.050;8.530;2023-05-20T11:15:17;3.45;;;2.13;;
70388;SDS011;58659;49.050;8.530;2023-05-20T11:17:56;3.08;;;1.90;;
70388;SDS011;58659;49.050;8.530;2023-05-20T11:20:23;2.88;;;2.08;;
70388;SDS011;58659;49.050;8.530;2023-05-20T11:22:50;4.70;;;2.13;;
70388;SDS011;58659;49.050;8.530;2023-05-20T11:25:16;2.53;;;1.92;;
70388;SDS011;58659;49.050;8.530;2023-05-20T11:27:42;2.33;;;1.90;;
70388;SDS011;58659;49.050;8.530;2023-05-20T11:30:09;2.20;;;2.00;;
70388;SDS011;58659;49.050;8.530;2023-05-20T11:32:36;2.65;;;2.05;;
70388;SDS011;58659;49.050;8.530;2023-05-20T11:35:01;2.60;;;2.00;;
70388;SDS011;58659;49.050;8.530;2023-05-20T11:37:28;4.80;;;1.90;;
70388;SDS011;58659;49.050;8.530;2023-05-20T11:40:06;2.13;;;1.83;;
70388;SDS011;58659;49.050;8.530;2023-05-20T11:42:32;4.32;;;2.35;;
70388;SDS011;58659;49.050;8.530;2023-05-20T11:44:59;5.63;;;2.20;;
70388;SDS011;58659;49.050;8.530;2023-05-20T11:47:25;2.78;;;2.10;;
70388;SDS011;58659;49.050;8.530;2023-05-20T11:49:54;4.68;;;2.47;;
70388;SDS011;58659;49.050;8.530;2023-05-20T11:52:20;3.22;;;2.15;;
70388;SDS011;58659;49.050;8.530;2023-05-20T11:54:52;2.92;;;2.28;;
70388;SDS011;58659;49.050;8.530;2023-05-20T11:57:17;2.33;;;1.90;;
70388;SDS011;58659;49.050;8.530;2023-05-20T11:59:43;5.15;;;2.00;;
70388;SDS011;58659;49.050;8.530;2023-05-20T12:02:08;3.88;;;2.08;;
70388;SDS011;58659;49.050;8.530;2023-05-20T12:04:34;2.38;;;2.00;;
70388;SDS011;58659;49.050;8.530;2023-05-20T12:06:59;2.28;;;1.92;;
70388;SDS011;58659;49.050;8.530;2023-05-20T12:09:25;4.53;;;2.35;;
70388;SDS011;58659;49.050;8.530;2023-05-20T12:11:50;3.10;;;2.13;;
70388;SDS011;58659;49.050;8.530;2023-05-20T12:14:16;2.90;;;2.10;;
70388;SDS011;58659;49.050;8.530;2023-05-20T12:16:42;2.45;;;2.25;;
70388;SDS011;58659;49.050;8.530;2023-05-20T12:19:07;3.75;;;2.53;;
70388;SDS011;58659;49.050;8.530;2023-05-20T12:21:33;3.80;;;2.10;;
70388;SDS011;58659;49.050;8.530;2023-05-20T12:23:58;3.55;;;1.95;;
70388;SDS011;58659;49.050;8.530;2023-05-20T12:26:24;4.07;;;2.08;;
70388;SDS011;58659;49.050;8.530;2023-05-20T12:28:51;3.67;;;2.40;;
70388;SDS011;58659;49.050;8.530;2023-05-20T12:31:24;2.20;;;2.00;;
70388;SDS011;58659;49.050;8.530;2023-05-20T12:33:50;3.47;;;2.20;;
70388;SDS011;58659;49.050;8.530;2023-05-20T12:36:15;4.40;;;2.37;;
70388;SDS011;58659;49.050;8.530;2023-05-20T12:38:41;3.92;;;2.30;;
70388;SDS011;58659;49.050;8.530;2023-05-20T12:41:06;5.80;;;2.30;;
70388;SDS011;58659;49.050;8.530;2023-05-20T12:43:32;3.38;;;2.40;;
70388;SDS011;58659;49.050;8.530;2023-05-20T12:45:58;3.17;;;2.05;;
70388;SDS011;58659;49.050;8.530;2023-05-20T12:48:24;4.45;;;2.25;;
70388;SDS011;58659;49.050;8.530;2023-05-20T12:50:49;2.55;;;2.05;;
70388;SDS011;58659;49.050;8.530;2023-05-20T12:53:14;4.55;;;2.50;;
70388;SDS011;58659;49.050;8.530;2023-05-20T12:55:40;2.75;;;2.17;;
70388;SDS011;58659;49.050;8.530;2023-05-20T12:58:05;3.60;;;2.65;;
70388;SDS011;58659;49.050;8.530;2023-05-20T13:00:33;3.95;;;2.25;;
70388;SDS011;58659;49.050;8.530;2023-05-20T13:02:58;3.58;;;2.28;;
70388;SDS011;58659;49.050;8.530;2023-05-20T13:05:24;2.83;;;2.17;;
70388;SDS011;58659;49.050;8.530;2023-05-20T13:07:49;3.05;;;2.10;;
70388;SDS011;58659;49.050;8.530;2023-05-20T13:10:15;2.83;;;2.25;;
70388;SDS011;58659;49.050;8.530;2023-05-20T13:12:41;2.95;;;2.10;;
70388;SDS011;58659;49.050;8.530;2023-05-20T13:15:10;3.75;;;2.42;;
70388;SDS011;58659;49.050;8.530;2023-05-20T13:17:36;3.38;;;2.20;;
70388;SDS011;58659;49.050;8.530;2023-05-20T13:20:02;2.75;;;1.90;;
70388;SDS011;58659;49.050;8.530;2023-05-20T13:24:53;3.53;;;2.35;;
70388;SDS011;58659;49.050;8.530;2023-05-20T13:27:19;3.42;;;2.28;;
70388;SDS011;58659;49.050;8.530;2023-05-20T13:29:44;3.35;;;1.90;;
70388;SDS011;58659;49.050;8.530;2023-05-20T13:32:10;3.38;;;2.28;;
70388;SDS011;58659;49.050;8.530;2023-05-20T13:34:35;4.68;;;2.70;;
70388;SDS011;58659;49.050;8.530;2023-05-20T13:37:01;3.35;;;2.17;;
70388;SDS011;58659;49.050;8.530;2023-05-20T13:39:27;9.57;;;2.58;;
70388;SDS011;58659;49.050;8.530;2023-05-20T13:41:53;3.30;;;2.13;;
70388;SDS011;58659;49.050;8.530;2023-05-20T13:44:19;2.83;;;2.08;;
70388;SDS011;58659;49.050;8.530;2023-05-20T13:46:44;3.90;;;2.35;;
70388;SDS011;58659;49.050;8.530;2023-05-20T13:49:10;3.63;;;2.00;;
70388;SDS011;58659;49.050;8.530;2023-05-20T13:51:38;3.60;;;2.38;;
70388;SDS011;58659;49.050;8.530;2023-05-20T13:54:03;2.75;;;2.15;;
70388;SDS011;58659;49.050;8.530;2023-05-20T13:56:28;7.07;;;2.30;;
70388;SDS011;58659;49.050;8.530;2023-05-20T13:58:54;3.25;;;2.25;;
70388;SDS011;58659;49.050;8.530;2023-05-20T14:01:19;2.72;;;1.92;;
70388;SDS011;58659;49.050;8.530;2023-05-20T14:03:44;3.03;;;2.10;;
70388;SDS011;58659;49.050;8.530;2023-05-20T14:06:10;3.42;;;2.20;;
70388;SDS011;58659;49.050;8.530;2023-05-20T14:08:35;4.00;;;2.30;;
70388;SDS011;58659;49.050;8.530;2023-05-20T14:11:01;3.55;;;2.47;;
70388;SDS011;58659;49.050;8.530;2023-05-20T14:13:26;3.03;;;1.92;;
70388;SDS011;58659;49.050;8.530;2023-05-20T14:15:51;4.22;;;2.10;;
70388;SDS011;58659;49.050;8.530;2023-05-20T14:18:18;3.42;;;2.17;;
70388;SDS011;58659;49.050;8.530;2023-05-20T14:20:44;2.42;;;1.90;;
70388;SDS011;58659;49.050;8.530;2023-05-20T14:23:10;3.72;;;2.38;;
70388;SDS011;58659;49.050;8.530;2023-05-20T14:25:36;3.38;;;2.25;;
70388;SDS011;58659;49.050;8.530;2023-05-20T14:28:01;4.47;;;2.22;;
70388;SDS011;58659;49.050;8.530;2023-05-20T14:30:26;3.80;;;2.33;;
70388;SDS011;58659;49.050;8.530;2023-05-20T14:32:52;3.63;;;2.08;;
70388;SDS011;58659;49.050;8.530;2023-05-20T14:35:18;4.35;;;2.30;;
70388;SDS011;58659;49.050;8.530;2023-05-20T14:37:43;3.60;;;2.60;;
70388;SDS011;58659;49.050;8.530;2023-05-20T14:40:09;3.03;;;2.00;;
70388;SDS011;58659;49.050;8.530;2023-05-20T14:42:35;3.33;;;1.80;;
70388;SDS011;58659;49.050;8.530;2023-05-20T14:45:01;3.75;;;2.40;;
70388;SDS011;58659;49.050;8.530;2023-05-20T14:47:26;4.28;;;2.35;;
70388;SDS011;58659;49.050;8.530;2023-05-20T14:49:52;3.78;;;2.38;;
70388;SDS011;58659;49.050;8.530;2023-05-20T14:52:17;3.65;;;2.10;;
70388;SDS011;58659;49.050;8.530;2023-05-20T14:54:43;5.22;;;2.30;;